Logo AVAMET
Benvolgut visitant, si us plau, ingressa Recuperar contrasenya
AVAMET paisatges
Union Alcoyana

Elx Atzavares Alt

Dades diàries. Acumulats / Últims 30 dies disponibles

Data Temperatura (°C) Humitat rel. (%) Pressió rel. (hPa) Vent (km/h) Precipitació
Mínima Mitjana Màxima Amplitud
tèrmica
Mínima Mitjana Màxima Mínima Mitjana Màxima Predom. Mitjana Ràfega
màxima
Total
(mm)
Índex-n
Mínima Mitjana Màxima Mínima Mitjana Màxima n
0 a 1
P0 max
mm 5'
Dades mensuals acumulades fins l'últim dia disponible
08/2021 19,9 19,9 19,9 25,5 29,4 29,4 29,4 9,5 39 64 81 1.010 1.013 1.015   1,2 8,0 0,0
Dades anuals acumulades fins l'últim dia disponible
2021 2,3 13,4 22,8 17,7 8,7 22,9 37,1 34,8 0 71 95 1.003 1.015 1.030   1,3 24,1 69,4
Últims 30 dies disponibles
01-08-2021 19,9     25,5     29,4 9,5 39 64 81 1.010 1.013 1.015 OSO 1,2 8,0 0,0
31-07-2021 20,7     26,4     31,3 10,6 40 78 92 1.006 1.008 1.010 NO 1,1 11,3 0,0
30-07-2021 22,3     26,4     37,1 14,8 82 85 87 1.008 1.009 1.009 N 0,1 1,6 0,0
26-07-2021 20,3     24,6     27,4 7,1 64 84 91 1.008 1.010 1.013 O 0,4 11,3 1,2
25-07-2021 21,4     26,6     32,8 11,4 50 79 94 1.007 1.008 1.009 OSO 0,9 9,7 0,0
24-07-2021 21,4     27,1     34,2 12,8 34 69 89 1.006 1.007 1.010 NO 0,5 8,0 0,0
23-07-2021 20,6     27,3     33,7 13,1 32 58 88 1.008 1.012 1.015 ONO 0,6 6,4 0,0
22-07-2021 21,3     27,4     34,4 13,1 31 57 86 1.014 1.016 1.017 O 0,9 9,7 0,0
21-07-2021 20,3     26,4     33,2 12,9 37 72 90 1.015 1.016 1.017 ONO 0,8 8,0 0,0
20-07-2021 20,2     25,4     32,2 12,0 42 71 88 1.013 1.013 1.015 NNO 0,8 9,7 0,0
19-07-2021 22,4     26,0     31,4 9,0 35 73 90 1.011 1.012 1.013 NO 1,0 8,0 0,0
18-07-2021 19,6     25,2     31,2 11,6 49 74 88 1.010 1.013 1.015 ONO 0,8 8,0 0,0
17-07-2021 19,5     27,7     31,2 11,7 45 64 85 1.014 1.016 1.017 ONO 1,2 8,0 0,0
14-07-2021 19,9     24,3     29,2 9,3 42 65 76 1.016 1.017 1.018 O 1,1 11,3 0,0
13-07-2021 21,7     25,4     32,4 10,7 18 60 73 1.010 1.015 1.017 SO 1,8 11,3 0,0
28-06-2021 18,1     24,0     29,4 11,3 57 74 89 1.011 1.012 1.014 ONO 0,8 8,0 0,0
27-06-2021 17,7     23,2     28,3 10,6 60 76 89 1.011 1.013 1.016 NNO 1,6 11,3 0,0
26-06-2021 18,0     23,4     28,7 10,7 40 68 88 1.014 1.016 1.018 O 0,9 8,0 0,0
25-06-2021 18,0     22,9     27,7 9,7 56 70 82 1.017 1.019 1.021 O 1,1 6,4 0,0
24-06-2021 18,2     22,5     26,9 8,7 49 69 85 1.018 1.019 1.021 O 2,0 9,7 0,0
23-06-2021 17,1     22,1     27,0 9,9 53 73 83 1.013 1.015 1.019 O 1,6 8,0 0,0
22-06-2021 20,5     25,0     29,9 9,4 32 50 81 1.010 1.012 1.014 OSO 2,8 14,5 0,0
21-06-2021 18,7     24,6     31,2 12,5 38 62 81 1.008 1.009 1.010 SSE 2,0 14,5 0,0
20-06-2021 18,6     23,8     30,8 12,2 36 69 92 1.008 1.010 1.013 S 1,1 9,7 0,0
19-06-2021 20,6     22,6     26,0 5,4 74 85 91 1.011 1.013 1.015 O 0,4 9,7 0,0
18-06-2021 21,0     24,0     27,4 6,4 63 74 87 1.010 1.012 1.014 O 1,5 11,3 0,0
17-06-2021 22,8     25,2     27,6 4,8 53 62 70 1.009 1.010 1.011 N 0,0 1,6 0,0
31-05-2021 16,0     20,0     24,7 8,7 47 74 89 1.013 1.015 1.018 ONO 0,3 4,8 0,0
30-05-2021 15,1     20,4     26,6 11,5 36 71 92 1.016 1.017 1.019 SSO 0,3 6,4 0,0
29-05-2021 14,6     20,1     26,6 12,0 51 75 91 1.018 1.019 1.020 SSO 0,4 4,8 0,0
Últims 13 mesos disponibles
01/2021 2,3 6,4 13,1 10,6 8,7 15,5 21,7 19,4 39 64 90 1.005 1.017 1.028 SSO 1,5 24,1 15,4
12/2020 1,3 7,8 14,8 12,5 13,1 18,2 25,2 23,9 42 63 83 999 1.016 1.028 S 1,1 24,1 1,6
11/2020 7,6 12,0 16,0 15,9 18,9 21,8 26,6 19,0 69 79 87 1.006 1.022 1.029 SO 0,6 19,3 13,6
10/2020 9,8 13,9 17,8 18,9 20,8 26,1 32,9 23,1 45 61 84 999 1.016 1.026 SSE 0,9 30,6 0,6
09/2020 14,6 19,0 21,3 23,5 23,8 29,4 32,8 18,2 28 66 84 1.011 1.016 1.022 SSW 1,0 35,4 2,8
08/2020 17,8 21,6 24,8 26,8 27,6 33,0 37,1 19,3 44 69 80 1.002 1.013 1.017 NNW 1,1 22,5 13,0
07/2020 19,2 21,0 22,9 25,8 29,7 31,1 33,4 14,2 59 65 70 1.015 1.016 1.016 NNW 1,4 22,5 0,0
06/2020 14,9 18,0 21,3 23,2 22,2 29,0 32,3 17,4 55 72 87 1.006 1.014 1.020 NNW 1,1 33,8 8,0
04/2020 8,7 12,4 17,2 16,5 17,4 21,5 27,7 19,0 58 78 87 1.007 1.017 1.026 SSW 1,0 25,7 33,6
03/2020 7,7 10,3 14,6 14,6 10,8 19,9 26,9 19,2 43 71 91 1.009 1.017 1.025 SSW 1,7 46,7 70,0
02/2020 5,7 9,3 12,9 14,6 14,8 21,4 27,8 22,1 44 72 90 1.015 1.026 1.034 SSW 0,9 32,2 1,2
01/2020 3,3 6,7 13,6 11,2 13,4 17,1 21,9 18,6 64 76 87 1.014 1.026 1.033 SSW 1,2 48,3 46,0
12/2019 4,8 9,7 14,9 13,6 13,8 18,8 24,7 19,9 48 73 88 1.006 1.019 1.033 SSW 1,1 38,6 41,6
Tots els anys disponibles
2019 2,4 13,6 24,8 18,4 13,1 24,3 39,1 36,7 36 68 92 997 1.017 1.033 SSW 0,9 43,5 355,7
2018 3,3 13,9 24,6 18,5 10,1 24,2 38,1 34,8 41 73 91 1.000 1.017 1.032 SSW 0,9 48,3 214,0
2017 1,4 13,8 26,8 18,6 7,6 24,4 36,8 35,4 1,1 51,5 162,2
2016 3,2 14,1 23,6 18,6 12,2 24,1 39,6 36,4 1,2 38,6 174,6
2015 -0,3 14,2 20,8 18,7 23,2 24,3 40,7 41,0 67 67 67 1.034 1.034 1.034 1,9 54,7 125,8
2014 0,9 14,4 24,6 19,2 10,1 24,4 37,2 36,3 45 69 88 993 1.015 1.034 45,0 109,4
Temperatura (°C)
Humitat relativa (%)
Velocitat del vent i ràfega màxima (km/h)
Direcció del vent (°)
Pressió (hPa)
Precipitació (mm)
Nota sobre les dades: s'avisa a l'usuari de la provisionalitat i no oficialitat d'aquestes dades
Logo AVAMET blanc
Web allotjada a Sollutia
Llicència de Creative CommonsLa web d'AVAMET i els seus continguts estan subjectes a una llicència de
Reconeixement - No Comercial - Compartir igual
Avís legal - Política de privacitat - Política de cookies
NOVES ESTACIONS: Rossellles Cases del Riu (Soci), la Mata (Ajuntament/Soci), l'Alcora Araia (Soci), la Vila Joiosa - Salomó del Carabassot (Soci), Ares del Maestrat - la Vall de Catí (Soci), Alpuente - la Torre (Soci), Gaibiel (Ajuntament/Soci), Almenara - Comunitat de Regants (Soci), Gandia - Camí de la mar (Soci) - - -